No es requerida especial atención con respecto al clima.   -   No hay avisos meteorológicos

Informes METAR

 

LEZL - Sevilla, Spain
Distancia de la estación: ESE 25km
Actualización: 22/01/2018 06:38
Neblina, Parcialmente nuboso
Neblina, Parcialmente nuboso
 Viento de variable
Viento: variable 4 km/h
Temperatura: 8°C
Rocío: 7°C
Humedad: 93%
Barómetro: 1029 hPa
Resumen: Neblina
Nubes: Parcialmente nuboso
Visibilidad: 4 km
2018/01/22 05:38 LEZL 220538Z VRB02KT 4200 BR NSC 08/07 Q1029 NOSIG
LEMO - Morón, Spain
Distancia de la estación: SE 65km
Actualización: 22/01/2018 06:00
Neblina, Parcialmente nuboso
Neblina, Parcialmente nuboso
 Viento de NNO
Viento: NNO 6 km/h
Temperatura: 4°C
Rocío: 3°C
Humedad: 93%
Barómetro: 1028 hPa
Resumen: Neblina
Nubes: Parcialmente nuboso
Visibilidad: 2 km
2018/01/22 05:00 LEMO 220500Z 34003KT 2000 BR NSC 04/03 Q1028 NOSIG
LEJR - Jeréz, Spain
Distancia de la estación: S 87km
Actualización: 22/01/2018 07:00
Parcialmente nuboso
Parcialmente nuboso
 Viento de NNE
Viento: NNE 6 km/h
Temperatura: 4°C
Rocío: 4°C
Humedad: 100%
Barómetro: 1028 hPa
Nubes: Parcialmente nuboso
Visibilidad: 6 km
2018/01/22 06:00 LEJR 220600Z 02003KT 340V040 6000 NSC 04/04 Q1028
 
LERT - Rota, Spain
Distancia de la estación: S 101km
Actualización: 22/01/2018 06:00
Bancos de niebla, Neblina, Poco nuboso
Bancos de niebla, Neblina, Poco nuboso
 Viento de NNE
Viento: NNE 6 km/h
Temperatura: 6°C
Rocío: 6°C
Humedad: 100%
Barómetro: 1028 hPa
Resumen: Bancos de niebla, Neblina
Nubes: Poco nuboso
Visibilidad: 5 km
Detalles de las nubes: Poco nuboso 30 m
2018/01/22 05:00 LERT 220500Z 02003KT 5000 BCFG BR FEW001 06/06 Q1028 NOSIG
LEMG - Málaga, Spain
Distancia de la estación: ESE 178km
Actualización: 22/01/2018 06:30
Despejado
Despejado
 Viento de ONO
Viento: ONO 20 km/h
Temperatura: 14°C
Rocío: 8°C
Humedad: 67%
Barómetro: 1026 hPa
Resumen: Despejado
Visibilidad: mayor de 10 km
2018/01/22 05:30 LEMG 220530Z 30011KT CAVOK 14/08 Q1026 NOSIG
LEBA - Córdoba, Spain
Distancia de la estación: ENE 123km
Actualización: 22/01/2018 06:30
Niebla, Cubierto
Niebla, Cubierto
 Viento de calm
Viento: Calma
Temperatura: 3°C
Rocío: 3°C
Humedad: 100%
Barómetro: 1029 hPa
Resumen: Niebla
Nubes: Cubierto
Visibilidad: 0 km
Detalles de las nubes: Cubierto 30 m
2018/01/22 05:30 LEBA 220530Z AUTO 00000KT 0050 R21/0075N FG VV001 03/03 Q1029
 
LEGR - Granada, Spain
Distancia de la estación: E 215km
Actualización: 22/01/2018 06:30
Despejado
Despejado
 Viento de calm
Viento: Calma
Temperatura: 2°C
Rocío: 1°C
Humedad: 93%
Barómetro: 1029 hPa
Resumen: Despejado
Visibilidad: mayor de 10 km
2018/01/22 05:30 LEGR 220530Z 00000KT CAVOK 02/01 Q1029
LEAM - Almería, Spain
Distancia de la estación: E 344km
Actualización: 22/01/2018 06:30
Despejado
Despejado
 Viento de N
Viento: N 7 km/h
Temperatura: 12°C
Rocío: 4°C
Humedad: 58%
Barómetro: 1026 hPa
Resumen: Despejado
Visibilidad: mayor de 10 km
2018/01/22 05:30 LEAM 220530Z 35004KT CAVOK 12/04 Q1026
GCLP - Las Palmas/Aeropuerto, Spain
Distancia de la estación: SO 1410km
Actualización: 22/01/2018 06:30
Despejado
Despejado
 Viento de NNO
Viento: NNO 17 km/h
Temperatura: 16°C
Rocío: 8°C
Humedad: 59%
Barómetro: 1025 hPa
Resumen: Despejado
Visibilidad: mayor de 10 km
2018/01/22 05:30 GCLP 220530Z 34009KT CAVOK 16/08 Q1025 NOSIG
 
LEMD - Madrid/Barajas, Spain
Distancia de la estación: NNE 402km
Actualización: 22/01/2018 06:30
Despejado
Despejado
 Viento de NNO
Viento: NNO 6 km/h
Temperatura: 2°C
Rocío: 2°C
Humedad: 100%
Barómetro: 1028 hPa
Resumen: Despejado
Visibilidad: mayor de 10 km
2018/01/22 05:30 LEMD 220530Z 34003KT CAVOK 02/02 Q1028 NOSIG
LEVD - Valladolid, Spain
Distancia de la estación: N 492km
Actualización: 21/01/2018 21:30
NOT Current
Parcialmente nuboso
Parcialmente nuboso
 Viento de SSO
Viento: SSO 11 km/h
Temperatura: 6°C
Sensación térmica: 4°C
Rocío: 5°C
Humedad: 93%
Barómetro: 1030 hPa
Nubes: Parcialmente nuboso
Visibilidad: 10 km
Detalles de las nubes: Parcialmente nuboso 396 m
2018/01/21 20:30 LEVD 212030Z 20006KT 9999 SCT013 06/05 Q1030
LEBL - Barcelona, Spain
Distancia de la estación: NE 816km
Actualización: 22/01/2018 06:30
Despejado
Despejado
 Viento de N
Viento: N 6 km/h
Temperatura: 14°C
Rocío: 8°C
Humedad: 67%
Barómetro: 1021 hPa
Resumen: Despejado
Visibilidad: mayor de 10 km
2018/01/22 05:30 LEBL 220530Z 36003KT 310V060 CAVOK 14/08 Q1021 NOSIG